createdAt,value
2023-01-08T00:03:08.749Z,100077.78
2023-01-08T00:08:10.508Z,100078.66
2023-01-08T00:13:12.085Z,100071.72
2023-01-08T00:18:13.617Z,100063.13
2023-01-08T00:23:24.141Z,100056.63
2023-01-08T00:28:25.817Z,100058.25
2023-01-08T00:33:27.615Z,100036.38
2023-01-08T00:38:29.803Z,100036.59
2023-01-08T00:43:31.448Z,100041.69
2023-01-08T00:48:33.250Z,100040.59
2023-01-08T00:53:35.549Z,100034.91
2023-01-08T00:58:37.385Z,100026.47
2023-01-08T01:03:38.951Z,100028.38
2023-01-08T01:08:41.262Z,100022.19
2023-01-08T01:13:42.701Z,100028.09
2023-01-08T01:18:44.674Z,100032.00
2023-01-08T01:23:46.396Z,100027.44
2023-01-08T01:28:53.089Z,100016.28
2023-01-08T01:33:55.177Z,100020.56
2023-01-08T01:38:58.280Z,100031.78
2023-01-08T01:44:20.931Z,100030.84
2023-01-08T01:49:23.391Z,100028.78
2023-01-08T01:54:25.071Z,100026.31
2023-01-08T01:59:26.548Z,100010.38
2023-01-08T02:04:28.519Z,100011.03
2023-01-08T02:10:00.506Z,99999.59
2023-01-08T02:15:10.861Z,99993.19
2023-01-08T02:20:20.704Z,99985.78
2023-01-08T02:25:25.201Z,99971.22
2023-01-08T02:30:27.339Z,99963.97
2023-01-08T02:35:52.489Z,99950.94
2023-01-08T02:41:04.621Z,99953.25
2023-01-08T02:46:11.611Z,99936.84
2023-01-08T02:51:28.356Z,99930.34
2023-01-08T02:56:37.768Z,99920.00
2023-01-08T03:01:40.572Z,99913.19
2023-01-08T03:06:43.080Z,99917.34
2023-01-08T03:11:53.279Z,99912.22
2023-01-08T03:17:17.950Z,99905.00
2023-01-08T03:22:20.156Z,99915.63
2023-01-08T03:27:25.280Z,99910.13
2023-01-08T03:32:29.520Z,99904.72
2023-01-08T03:37:36.678Z,99907.66
2023-01-08T03:42:41.888Z,99906.22
2023-01-08T03:47:44.827Z,99905.41
2023-01-08T03:52:48.845Z,99892.88
2023-01-08T03:57:50.441Z,99891.03
2023-01-08T04:02:52.021Z,99886.59
2023-01-08T04:07:57.695Z,99886.59
2023-01-08T04:12:59.340Z,99872.78
2023-01-08T04:18:00.866Z,99866.56
2023-01-08T04:23:02.715Z,99867.53
2023-01-08T04:28:04.747Z,99865.13
2023-01-08T04:33:06.392Z,99868.34
2023-01-08T04:38:08.451Z,99861.78
2023-01-08T04:43:10.929Z,99859.63
2023-01-08T04:48:12.764Z,99869.41
2023-01-08T04:53:14.444Z,99861.19
2023-01-08T04:58:15.931Z,99857.97
2023-01-08T05:03:17.350Z,99858.19
2023-01-08T05:08:18.723Z,99846.53
2023-01-08T05:13:20.336Z,99850.56
2023-01-08T05:18:21.919Z,99828.13
2023-01-08T05:23:23.421Z,99822.81
2023-01-08T05:28:25.242Z,99825.25
2023-01-08T05:33:26.880Z,99836.72
2023-01-08T05:38:28.395Z,99836.72
2023-01-08T05:43:30.657Z,99839.78
2023-01-08T05:48:33.870Z,99838.81
2023-01-08T05:53:35.345Z,99847.53
2023-01-08T05:58:40.458Z,99835.81
2023-01-08T06:03:42.123Z,99832.13
2023-01-08T06:08:43.549Z,99832.78
2023-01-08T06:13:44.976Z,99838.47
2023-01-08T06:18:46.950Z,99838.69
2023-01-08T06:23:57.337Z,99831.81
2023-01-08T06:29:04.912Z,99838.69
2023-01-08T06:34:06.760Z,99840.22
2023-01-08T06:39:11.924Z,99834.75
2023-01-08T06:44:13.398Z,99833.66
2023-01-08T06:49:14.855Z,99834.97
2023-01-08T06:54:16.329Z,99844.34
2023-01-08T06:59:17.845Z,99842.31
2023-01-08T07:04:19.659Z,99855.53
2023-01-08T07:09:21.043Z,99917.72
2023-01-08T07:14:22.579Z,99912.97
2023-01-08T07:19:24.029Z,99896.06
2023-01-08T07:24:25.467Z,99899.50
2023-01-08T07:29:26.849Z,99906.22
2023-01-08T07:34:28.181Z,99905.06
2023-01-08T07:39:29.776Z,99904.41
2023-01-08T07:44:31.199Z,99906.91
2023-01-08T07:49:32.611Z,99895.28
2023-01-08T07:54:36.613Z,99895.13
2023-01-08T07:59:38.106Z,99891.78
2023-01-08T08:04:39.539Z,99890.38
2023-01-08T08:09:43.877Z,99883.66
2023-01-08T08:14:45.358Z,99880.78
2023-01-08T08:19:46.729Z,99879.75
2023-01-08T08:24:48.068Z,99882.41
2023-01-08T08:29:49.495Z,99864.84
2023-01-08T08:34:51.034Z,99868.28
2023-01-08T08:39:52.682Z,99861.44
2023-01-08T08:44:54.190Z,99855.28
2023-01-08T08:49:58.179Z,99850.97
2023-01-08T08:55:00.301Z,99850.09
2023-01-08T09:00:01.811Z,99849.59
2023-01-08T09:05:03.269Z,99848.78
2023-01-08T09:10:05.161Z,99836.38
2023-01-08T09:15:07.122Z,99816.53
2023-01-08T09:20:09.093Z,99829.44
2023-01-08T09:25:10.743Z,99826.78
2023-01-08T09:30:13.036Z,99828.34
2023-01-08T09:35:17.207Z,99824.88
2023-01-08T09:40:20.606Z,99824.88
2023-01-08T09:45:28.929Z,99822.75
2023-01-08T09:50:32.053Z,99824.66
2023-01-08T09:55:34.358Z,99815.22
2023-01-08T10:00:37.879Z,99820.53
2023-01-08T10:05:39.481Z,99814.47
2023-01-08T10:10:41.708Z,99806.72
2023-01-08T10:15:43.350Z,99795.72
2023-01-08T10:20:44.898Z,99787.16
2023-01-08T10:25:50.812Z,99765.91
2023-01-08T10:30:53.779Z,99747.63
2023-01-08T10:36:07.932Z,99743.72
2023-01-08T10:41:12.326Z,99750.25
2023-01-08T10:46:22.311Z,99757.06
2023-01-08T10:51:25.870Z,99744.66
2023-01-08T10:56:28.580Z,99734.25
2023-01-08T11:01:32.898Z,99726.47
2023-01-08T11:06:42.813Z,99715.06
2023-01-08T11:11:44.206Z,99710.91
2023-01-08T11:16:46.885Z,99708.25
2023-01-08T11:22:06.681Z,99690.31
2023-01-08T11:27:30.662Z,99690.44
2023-01-08T11:32:49.021Z,99681.63
2023-01-08T11:37:55.475Z,99679.78
2023-01-08T11:43:18.495Z,99664.41
2023-01-08T11:48:40.741Z,99658.63
2023-01-08T11:54:08.790Z,99675.06
2023-01-08T11:59:36.651Z,99643.72
2023-01-08T12:04:58.807Z,99652.94
2023-01-08T12:10:20.644Z,99665.94
2023-01-08T12:15:44.569Z,99634.44
2023-01-08T12:21:09.366Z,99632.63
2023-01-08T12:26:30.712Z,99627.41
2023-01-08T12:31:38.076Z,99624.88
2023-01-08T12:37:00.825Z,99613.84
2023-01-08T12:42:11.623Z,99610.75
2023-01-08T12:47:18.676Z,99612.25
2023-01-08T12:52:29.915Z,99596.72
2023-01-08T12:57:41.503Z,99598.63
2023-01-08T13:03:03.809Z,99610.81
2023-01-08T13:08:33.136Z,99600.75
2023-01-08T13:13:38.670Z,99593.56
2023-01-08T13:18:40.649Z,99598.28
2023-01-08T13:23:42.178Z,99582.03
2023-01-08T13:28:45.543Z,99576.81
2023-01-08T13:33:50.864Z,99568.28
2023-01-08T13:39:12.167Z,99558.19
2023-01-08T13:44:26.612Z,99556.28
2023-01-08T13:49:35.332Z,99560.69
2023-01-08T13:54:43.363Z,99559.13
2023-01-08T13:59:58.963Z,99551.50
2023-01-08T14:05:02.529Z,99538.88
2023-01-08T14:10:09.763Z,99543.44
2023-01-08T14:15:21.850Z,99538.75
2023-01-08T14:20:36.617Z,99537.50
2023-01-08T14:25:42.675Z,99512.63
2023-01-08T14:30:52.131Z,99507.78
2023-01-08T14:35:54.626Z,99505.50
2023-01-08T14:41:09.697Z,99514.25
2023-01-08T14:46:29.733Z,99507.78
2023-01-08T14:51:31.784Z,99513.66
2023-01-08T14:56:38.184Z,99509.13
2023-01-08T15:01:40.101Z,99495.66
2023-01-08T15:06:41.595Z,99487.16
2023-01-08T15:12:04.332Z,99492.38
2023-01-08T15:17:20.194Z,99501.28
2023-01-08T15:22:33.189Z,99498.28
2023-01-08T15:27:34.960Z,99491.47
2023-01-08T15:32:37.092Z,99483.59
2023-01-08T15:37:39.246Z,99483.13
2023-01-08T15:42:43.953Z,99473.41
2023-01-08T15:47:45.432Z,99464.97
2023-01-08T15:52:46.896Z,99463.00
2023-01-08T15:57:48.753Z,99459.06
2023-01-08T16:02:52.625Z,99467.03
2023-01-08T16:07:54.274Z,99464.91
2023-01-08T16:12:56.280Z,99459.25
2023-01-08T16:17:58.583Z,99456.44
2023-01-08T16:23:00.067Z,99456.69
2023-01-08T16:28:02.152Z,99460.34
2023-01-08T16:33:03.654Z,99452.34
2023-01-08T16:38:05.291Z,99455.09
2023-01-08T16:43:06.641Z,99444.09
2023-01-08T16:48:08.060Z,99439.34
2023-01-08T16:53:09.871Z,99428.94
2023-01-08T16:58:11.299Z,99424.84
2023-01-08T17:03:12.860Z,99421.16
2023-01-08T17:08:14.830Z,99414.66
2023-01-08T17:13:16.276Z,99413.66
2023-01-08T17:18:17.678Z,99395.38
2023-01-08T17:23:19.170Z,99391.28
2023-01-08T17:28:20.939Z,99388.06
2023-01-08T17:33:22.893Z,99394.53
2023-01-08T17:38:27.755Z,99395.75
2023-01-08T17:43:34.366Z,99389.66
2023-01-08T17:48:35.862Z,99395.75
2023-01-08T17:53:37.294Z,99386.38
2023-01-08T17:58:38.747Z,99372.69
2023-01-08T18:03:40.267Z,99360.88
2023-01-08T18:08:41.768Z,99355.69
2023-01-08T18:13:43.158Z,99352.91
2023-01-08T18:18:44.522Z,99341.78
2023-01-08T18:23:46.168Z,99336.94
2023-01-08T18:28:47.939Z,99333.66
2023-01-08T18:33:50.401Z,99332.34
2023-01-08T18:38:51.947Z,99333.53
2023-01-08T18:43:53.867Z,99314.00
2023-01-08T18:48:55.540Z,99316.09
2023-01-08T18:53:57.088Z,99312.16
2023-01-08T18:58:58.681Z,99313.56
2023-01-08T19:04:00.203Z,99306.53
2023-01-08T19:09:01.988Z,99292.00
2023-01-08T19:14:04.215Z,99285.09
2023-01-08T19:19:05.917Z,99260.97
2023-01-08T19:24:08.182Z,99267.56
2023-01-08T19:29:09.636Z,99266.84
2023-01-08T19:34:11.109Z,99254.03
2023-01-08T19:39:12.758Z,99245.03
2023-01-08T19:44:14.232Z,99224.88
2023-01-08T19:49:15.882Z,99216.91
2023-01-08T19:54:17.330Z,99212.75
2023-01-08T19:59:18.770Z,99211.13
2023-01-08T20:04:20.172Z,99209.97
2023-01-08T20:09:21.727Z,99208.34
2023-01-08T20:14:23.178Z,99189.91
2023-01-08T20:19:25.357Z,99197.03
2023-01-08T20:24:26.760Z,99188.66
2023-01-08T20:29:28.289Z,99174.03
2023-01-08T20:34:29.662Z,99169.91
2023-01-08T20:39:31.235Z,99172.88
2023-01-08T20:44:32.971Z,99158.31
2023-01-08T20:49:34.387Z,99155.13
2023-01-08T20:54:35.881Z,99144.44
2023-01-08T20:59:37.353Z,99132.69
2023-01-08T21:04:38.997Z,99127.50
2023-01-08T21:09:40.521Z,99132.91
2023-01-08T21:14:42.676Z,99113.66
2023-01-08T21:19:44.091Z,99116.69
2023-01-08T21:24:45.517Z,99103.91
2023-01-08T21:29:47.199Z,99094.59
2023-01-08T21:34:48.783Z,99085.25
2023-01-08T21:39:52.889Z,99070.13
2023-01-08T21:44:54.367Z,99054.44
2023-01-08T21:49:55.798Z,99054.84
2023-01-08T21:54:57.356Z,99039.25
2023-01-08T21:59:59.080Z,99019.31
2023-01-08T22:05:00.561Z,99015.47
2023-01-08T22:10:02.252Z,99012.94
2023-01-08T22:15:03.996Z,98997.84
2023-01-08T22:20:06.171Z,98992.50
2023-01-08T22:25:08.328Z,98988.91
2023-01-08T22:30:11.926Z,98982.34
2023-01-08T22:35:13.337Z,98987.19
2023-01-08T22:40:14.759Z,98981.00
2023-01-08T22:45:16.163Z,98976.94
2023-01-08T22:50:17.558Z,98977.66
2023-01-08T22:55:19.004Z,98981.03
2023-01-08T23:00:20.586Z,98984.59
2023-01-08T23:05:22.010Z,98993.03
2023-01-08T23:10:24.045Z,98983.09
2023-01-08T23:15:25.861Z,98994.31
2023-01-08T23:20:27.686Z,98989.44
2023-01-08T23:25:29.207Z,98992.81
2023-01-08T23:30:30.838Z,98998.56
2023-01-08T23:35:32.285Z,99007.75
2023-01-08T23:40:36.412Z,99009.50
2023-01-08T23:45:39.022Z,99020.09
2023-01-08T23:50:40.495Z,99015.81
2023-01-08T23:55:41.888Z,99019.13
